Time;durP1;ratioP1;P1;durP2;ratioP2;P2;SDS_P1;SDS_P2;PMS_P1;PMS_P2;Temp;Humidity;BMP_temperature;BMP_pressure;BME280_temperature;BME280_humidity;BME280_pressure;Samples;Min_cycle;Max_cycle;Signal;HPM_P1;HPM_P2
2020/12/28 00:02:08;;;;;;;4.10;1.45;;;4.90;99.90;;;;;;5009005;28;20348;-81
2020/12/28 00:04:34;;;;;;;6.55;1.80;;;4.80;99.90;;;;;;5002615;28;20413;-81
2020/12/28 00:07:01;;;;;;;5.20;1.55;;;4.80;99.90;;;;;;5012664;28;20029;-81
2020/12/28 00:09:26;;;;;;;3.53;1.17;;;4.90;99.90;;;;;;5000193;28;20677;-81
2020/12/28 00:11:54;;;;;;;4.32;1.70;;;4.90;99.90;;;;;;5006464;28;20037;-81
2020/12/28 00:14:20;;;;;;;3.60;1.30;;;4.90;99.90;;;;;;4998992;28;20028;-81
2020/12/28 00:16:45;;;;;;;2.92;1.10;;;5.00;99.90;;;;;;5000218;28;20041;-81
2020/12/28 00:19:12;;;;;;;2.47;0.57;;;5.10;99.90;;;;;;5012387;28;20218;-82
2020/12/28 00:21:38;;;;;;;1.98;0.57;;;5.10;99.90;;;;;;4998048;28;20163;-82
2020/12/28 00:24:04;;;;;;;2.65;0.70;;;5.20;99.90;;;;;;5011911;28;20168;-81
2020/12/28 00:26:37;;;;;;;4.75;0.93;;;5.10;99.90;;;;;;4999301;28;20041;-82
2020/12/28 00:29:04;;;;;;;4.20;1.20;;;5.10;99.90;;;;;;5015098;28;20033;-81
2020/12/28 00:31:30;;;;;;;4.88;1.27;;;5.10;99.90;;;;;;5012812;28;20435;-81
2020/12/28 00:33:55;;;;;;;6.18;1.50;;;5.10;99.90;;;;;;5001591;28;20034;-82
2020/12/28 00:36:21;;;;;;;2.55;0.50;;;5.00;99.90;;;;;;5007161;28;20030;-82
2020/12/28 00:38:47;;;;;;;1.55;0.60;;;5.10;99.90;;;;;;5009537;28;20033;-81
2020/12/28 00:41:13;;;;;;;5.78;0.98;;;5.10;99.90;;;;;;5014538;28;20064;-81
2020/12/28 00:43:43;;;;;;;3.50;1.10;;;5.10;99.90;;;;;;5011164;28;20124;-82
2020/12/28 00:46:09;;;;;;;4.45;1.30;;;5.10;99.90;;;;;;5010772;28;20139;-81
2020/12/28 00:48:35;;;;;;;2.85;0.77;;;5.00;99.90;;;;;;5003504;28;20389;-81
2020/12/28 00:51:02;;;;;;;3.63;1.00;;;5.00;99.90;;;;;;5007102;28;20042;-81
2020/12/28 00:53:31;;;;;;;3.63;0.90;;;4.90;99.90;;;;;;5007199;28;20392;-81
2020/12/28 00:55:57;;;;;;;3.95;1.02;;;4.90;99.90;;;;;;5011727;28;20038;-81
2020/12/28 00:58:23;;;;;;;2.63;0.80;;;4.90;99.90;;;;;;5003733;28;20033;-82
2020/12/28 01:00:49;;;;;;;4.05;1.17;;;4.80;99.90;;;;;;5002999;28;20034;-82
2020/12/28 01:03:15;;;;;;;3.05;0.88;;;4.70;99.90;;;;;;5010270;28;20029;-81
2020/12/28 01:05:42;;;;;;;1.88;0.70;;;4.60;99.90;;;;;;5014165;28;20208;-82
2020/12/28 01:08:07;;;;;;;3.05;0.88;;;4.50;99.90;;;;;;5019427;28;20064;-81
2020/12/28 01:10:34;;;;;;;4.80;1.30;;;4.50;99.90;;;;;;5011184;28;20044;-81
2020/12/28 01:13:00;;;;;;;3.42;0.85;;;4.40;99.90;;;;;;5018222;28;20475;-82
2020/12/28 01:15:25;;;;;;;3.05;0.93;;;4.30;99.90;;;;;;5016606;28;20107;-81
2020/12/28 01:17:51;;;;;;;2.25;0.47;;;4.30;99.90;;;;;;5018694;28;20075;-81
2020/12/28 01:20:17;;;;;;;2.08;0.50;;;4.30;99.90;;;;;;5014507;28;20032;-81
2020/12/28 01:22:42;;;;;;;1.65;0.47;;;4.30;99.90;;;;;;5016556;28;20025;-81
2020/12/28 01:25:08;;;;;;;4.88;0.60;;;4.30;99.90;;;;;;5012805;28;20075;-81
2020/12/28 01:27:34;;;;;;;3.47;0.70;;;4.30;99.90;;;;;;5008838;28;20034;-81
2020/12/28 01:29:59;;;;;;;1.20;0.60;;;4.20;99.90;;;;;;5009826;28;20220;-81
2020/12/28 01:32:25;;;;;;;1.92;0.50;;;4.20;99.90;;;;;;5013347;28;20037;-81
2020/12/28 01:34:51;;;;;;;1.20;0.40;;;4.20;99.90;;;;;;5011419;28;20491;-81
2020/12/28 01:37:16;;;;;;;0.90;0.30;;;4.20;99.90;;;;;;5000143;28;20514;-81
2020/12/28 01:39:42;;;;;;;1.15;0.40;;;4.20;99.90;;;;;;5011831;28;20033;-81
2020/12/28 01:42:08;;;;;;;1.40;0.30;;;4.20;99.90;;;;;;5012370;28;20029;-81
2020/12/28 01:44:34;;;;;;;1.13;0.40;;;4.10;99.90;;;;;;5004510;28;20225;-81
2020/12/28 01:47:00;;;;;;;1.38;0.43;;;4.00;99.90;;;;;;5008446;28;20136;-82
2020/12/28 01:49:26;;;;;;;1.00;0.30;;;3.90;99.90;;;;;;5005443;28;20038;-81
2020/12/28 01:51:52;;;;;;;2.85;0.70;;;4.00;99.90;;;;;;4998886;28;20093;-82
2020/12/28 01:54:20;;;;;;;1.35;0.30;;;3.80;99.90;;;;;;5014324;28;20530;-81
2020/12/28 01:56:51;;;;;;;1.13;0.40;;;3.80;99.90;;;;;;5012654;28;20037;-82
2020/12/28 01:59:17;;;;;;;4.88;1.15;;;3.80;99.90;;;;;;5003955;28;20026;-82
2020/12/28 02:01:45;;;;;;;2.22;0.60;;;3.70;99.90;;;;;;5000106;28;20045;-82
2020/12/28 02:04:11;;;;;;;3.05;0.60;;;3.70;99.90;;;;;;5015891;28;20021;-82
2020/12/28 02:06:38;;;;;;;1.67;0.40;;;3.70;99.90;;;;;;5010788;28;20041;-81
2020/12/28 02:09:04;;;;;;;0.82;0.30;;;3.70;99.90;;;;;;5012201;28;20056;-81
2020/12/28 02:11:30;;;;;;;0.70;0.30;;;3.80;99.90;;;;;;5013655;28;20041;-81
2020/12/28 02:14:14;;;;;;;2.55;0.90;;;3.70;99.90;;;;;;5008608;28;20480;-81
2020/12/28 02:16:45;;;;;;;5.43;0.70;;;3.80;99.90;;;;;;5020225;28;20021;-81
2020/12/28 02:19:20;;;;;;;4.18;0.50;;;3.80;99.90;;;;;;5027222;28;20029;-81
2020/12/28 02:21:48;;;;;;;1.30;0.28;;;3.80;99.90;;;;;;5007184;28;20038;-81
2020/12/28 02:24:20;;;;;;;1.92;0.30;;;3.80;99.90;;;;;;5008306;28;20125;-81
2020/12/28 02:26:49;;;;;;;1.80;0.80;;;3.90;99.90;;;;;;5023937;28;20033;-82
2020/12/28 02:31:47;;;;;;;1.73;0.40;;;3.80;99.90;;;;;;5015369;28;20042;-81
2020/12/28 02:34:19;;;;;;;1.75;0.43;;;3.80;99.90;;;;;;5012826;28;20101;-82
2020/12/28 02:36:49;;;;;;;2.08;0.50;;;3.80;99.90;;;;;;5027667;28;20025;-81
2020/12/28 02:39:15;;;;;;;6.88;0.40;;;3.80;99.90;;;;;;5012689;28;20235;-82
2020/12/28 02:41:41;;;;;;;0.93;0.40;;;3.80;99.90;;;;;;5015526;28;20065;-81
2020/12/28 02:44:07;;;;;;;1.20;0.50;;;3.70;99.90;;;;;;4996966;28;20030;-81
2020/12/28 02:46:32;;;;;;;2.50;0.43;;;3.60;99.90;;;;;;5014807;28;20033;-81
2020/12/28 02:49:02;;;;;;;3.25;0.43;;;3.60;99.90;;;;;;5019321;28;20148;-81
2020/12/28 02:51:28;;;;;;;0.70;0.30;;;3.60;99.90;;;;;;5012613;28;20433;-81
2020/12/28 02:53:54;;;;;;;1.58;0.22;;;3.50;99.90;;;;;;5008221;28;20224;-81
2020/12/28 02:56:20;;;;;;;1.10;0.32;;;3.40;99.90;;;;;;5008758;28;20048;-81
2020/12/28 02:58:45;;;;;;;1.17;0.30;;;3.40;99.90;;;;;;5012769;28;20068;-81
2020/12/28 03:01:12;;;;;;;1.45;0.50;;;3.40;99.90;;;;;;5014222;28;20038;-82
2020/12/28 03:03:38;;;;;;;1.45;0.30;;;3.30;99.90;;;;;;5009418;28;20097;-81
2020/12/28 03:06:04;;;;;;;0.88;0.20;;;3.40;99.90;;;;;;5014008;28;20528;-82
2020/12/28 03:08:30;;;;;;;0.60;0.10;;;3.40;99.90;;;;;;5012211;28;20049;-81
2020/12/28 03:10:55;;;;;;;0.70;0.20;;;3.50;99.90;;;;;;4999626;28;20156;-81
2020/12/28 03:13:21;;;;;;;1.52;0.30;;;3.50;99.90;;;;;;4998677;28;20108;-81
2020/12/28 03:15:47;;;;;;;0.28;0.15;;;3.40;99.90;;;;;;5017926;28;20460;-82
2020/12/28 03:18:12;;;;;;;1.42;0.30;;;3.50;99.90;;;;;;5009133;28;20022;-82
2020/12/28 03:20:38;;;;;;;0.85;0.30;;;3.50;99.90;;;;;;5009124;28;20033;-81
2020/12/28 03:23:04;;;;;;;0.70;0.10;;;3.60;99.90;;;;;;5012813;28;20021;-81
2020/12/28 03:25:30;;;;;;;1.05;0.30;;;3.60;99.90;;;;;;5014492;28;20033;-81
2020/12/28 03:27:55;;;;;;;0.70;0.38;;;3.50;99.90;;;;;;5006836;28;20087;-80
2020/12/28 03:30:21;;;;;;;1.00;0.40;;;3.40;99.90;;;;;;5014104;28;20041;-81
2020/12/28 03:32:47;;;;;;;1.08;0.20;;;3.30;99.90;;;;;;5018837;28;20037;-81
2020/12/28 03:35:12;;;;;;;0.73;0.20;;;3.20;99.90;;;;;;5005584;28;20029;-80
2020/12/28 03:37:38;;;;;;;0.82;0.28;;;3.20;99.90;;;;;;4999602;28;20026;-81
2020/12/28 03:40:04;;;;;;;0.77;0.30;;;3.10;99.90;;;;;;5017042;28;20057;-81
2020/12/28 03:42:30;;;;;;;1.90;0.20;;;3.20;99.90;;;;;;5013188;28;20029;-81
2020/12/28 03:44:56;;;;;;;2.10;0.40;;;3.20;99.90;;;;;;5018115;28;20103;-81
2020/12/28 03:47:21;;;;;;;1.30;0.60;;;3.20;99.90;;;;;;5014700;28;20380;-80
2020/12/28 03:49:47;;;;;;;0.73;0.20;;;3.10;99.90;;;;;;5014336;28;20050;-80
2020/12/28 03:52:13;;;;;;;0.40;0.10;;;3.20;99.90;;;;;;5000786;28;20025;-81
2020/12/28 03:54:40;;;;;;;0.65;0.10;;;3.40;99.90;;;;;;5014312;28;20113;-81
2020/12/28 03:57:06;;;;;;;0.30;0.10;;;3.40;99.90;;;;;;5011139;28;20346;-81
2020/12/28 03:59:31;;;;;;;0.82;0.20;;;3.50;99.90;;;;;;5018536;28;20258;-81
2020/12/28 04:01:57;;;;;;;0.63;0.20;;;3.60;99.90;;;;;;5012859;28;20520;-80
2020/12/28 04:04:23;;;;;;;1.90;0.40;;;3.60;99.90;;;;;;5015186;28;20450;-81
2020/12/28 04:06:48;;;;;;;1.65;0.40;;;3.60;99.90;;;;;;5005664;28;20034;-81
2020/12/28 04:09:14;;;;;;;0.98;0.20;;;3.50;99.90;;;;;;5011318;28;20104;-81
2020/12/28 04:11:40;;;;;;;1.02;0.30;;;3.30;99.90;;;;;;5017882;28;20037;-81
2020/12/28 04:14:06;;;;;;;0.57;0.10;;;3.20;99.90;;;;;;5014114;28;20423;-81
2020/12/28 04:16:31;;;;;;;0.63;0.15;;;3.00;99.90;;;;;;5014326;28;20476;-81
2020/12/28 04:18:57;;;;;;;1.05;0.30;;;3.10;99.90;;;;;;5015319;28;20096;-81
2020/12/28 04:21:23;;;;;;;1.05;0.30;;;3.10;99.90;;;;;;5012977;28;20029;-80
2020/12/28 04:23:48;;;;;;;0.75;0.30;;;3.00;99.90;;;;;;5012147;28;20547;-81
2020/12/28 04:26:14;;;;;;;1.10;0.30;;;3.10;99.90;;;;;;5002836;28;20473;-82
2020/12/28 04:28:40;;;;;;;0.75;0.30;;;3.10;99.90;;;;;;5012696;28;20025;-82
2020/12/28 04:31:10;;;;;;;0.70;0.10;;;3.10;99.90;;;;;;5007473;28;20041;-82
2020/12/28 04:33:36;;;;;;;0.68;0.38;;;3.10;99.90;;;;;;5008691;28;20033;-82
2020/12/28 04:36:03;;;;;;;2.05;0.40;;;3.10;99.90;;;;;;5013925;28;20044;-82
2020/12/28 04:38:28;;;;;;;1.25;0.20;;;3.20;99.90;;;;;;5010892;28;20040;-82
2020/12/28 04:40:55;;;;;;;0.85;0.30;;;3.20;99.90;;;;;;5004327;28;20066;-82
2020/12/28 04:43:21;;;;;;;0.60;0.15;;;3.20;99.90;;;;;;4992755;28;20030;-82
2020/12/28 04:45:47;;;;;;;1.17;0.20;;;3.20;99.90;;;;;;5007647;28;20072;-82
2020/12/28 04:48:13;;;;;;;0.70;0.30;;;3.10;99.90;;;;;;4994638;28;20489;-82
2020/12/28 04:50:40;;;;;;;0.55;0.28;;;3.00;99.90;;;;;;5007456;28;20037;-82
2020/12/28 04:53:06;;;;;;;0.43;0.10;;;3.00;99.90;;;;;;5008509;28;20030;-82
2020/12/28 04:55:32;;;;;;;0.75;0.20;;;3.00;99.90;;;;;;5009567;28;20060;-82
2020/12/28 04:57:59;;;;;;;0.98;0.30;;;3.00;99.90;;;;;;5008174;28;20037;-82
2020/12/28 05:00:25;;;;;;;1.88;0.40;;;2.80;99.90;;;;;;5002091;28;20033;-81
2020/12/28 05:02:51;;;;;;;0.77;0.28;;;2.80;99.90;;;;;;5013656;28;20025;-81
2020/12/28 05:05:16;;;;;;;1.02;0.32;;;2.90;99.90;;;;;;5006132;28;21315;-81
2020/12/28 05:07:49;;;;;;;1.67;0.20;;;2.90;99.90;;;;;;5004091;28;20511;-81
2020/12/28 05:10:23;;;;;;;1.33;0.60;;;2.90;99.90;;;;;;5010464;28;20036;-82
2020/12/28 05:12:49;;;;;;;0.57;0.20;;;2.70;99.90;;;;;;5015012;28;20026;-82
2020/12/28 05:15:15;;;;;;;0.57;0.20;;;2.70;99.90;;;;;;5006231;28;20036;-82
2020/12/28 05:17:41;;;;;;;1.45;0.57;;;2.80;99.90;;;;;;4999343;28;20049;-82
2020/12/28 05:20:07;;;;;;;1.10;0.30;;;2.70;99.90;;;;;;5006671;28;20029;-81
2020/12/28 05:22:33;;;;;;;1.63;0.35;;;2.80;99.90;;;;;;5006798;28;20087;-81
2020/12/28 05:24:59;;;;;;;0.82;0.20;;;2.70;99.90;;;;;;5012375;28;20034;-82
2020/12/28 05:27:25;;;;;;;0.47;0.30;;;2.70;99.90;;;;;;5005399;28;20826;-81
2020/12/28 05:29:51;;;;;;;0.93;0.20;;;2.70;99.90;;;;;;5007053;28;20076;-82
2020/12/28 05:32:18;;;;;;;1.33;0.43;;;2.70;99.90;;;;;;5008889;28;20041;-82
2020/12/28 05:34:45;;;;;;;0.80;0.30;;;2.80;99.90;;;;;;4999191;28;20034;-82
2020/12/28 05:37:13;;;;;;;0.90;0.30;;;2.70;99.90;;;;;;5011466;28;20056;-81
2020/12/28 05:39:40;;;;;;;0.73;0.20;;;2.70;99.90;;;;;;5000742;28;20041;-81
2020/12/28 05:42:10;;;;;;;0.60;0.30;;;2.80;99.90;;;;;;5012504;28;20038;-82
2020/12/28 05:44:38;;;;;;;2.28;0.30;;;2.80;99.90;;;;;;5017904;28;20029;-82
2020/12/28 05:47:11;;;;;;;0.30;0.10;;;2.80;99.90;;;;;;5013489;28;20132;-81
2020/12/28 05:49:47;;;;;;;1.63;0.40;;;2.90;99.90;;;;;;5001739;28;20030;-81
2020/12/28 05:52:15;;;;;;;3.03;0.98;;;3.00;99.90;;;;;;5005586;28;20038;-82
2020/12/28 05:54:42;;;;;;;4.18;0.60;;;3.00;99.90;;;;;;5021500;28;20029;-81
2020/12/28 05:57:09;;;;;;;1.63;0.63;;;3.00;99.90;;;;;;5011942;28;20088;-81
2020/12/28 05:59:46;;;;;;;3.47;1.50;;;3.00;99.90;;;;;;5017961;28;20017;-82
2020/12/28 06:02:13;;;;;;;1.73;0.75;;;3.10;99.90;;;;;;5023868;28;20033;-81
2020/12/28 06:04:39;;;;;;;3.10;1.02;;;3.10;99.90;;;;;;5002114;28;20032;-81
2020/12/28 06:07:06;;;;;;;6.55;1.35;;;3.10;99.90;;;;;;5021645;28;20368;-82
2020/12/28 06:09:33;;;;;;;1.75;0.55;;;3.10;99.90;;;;;;5015372;28;20112;-81
2020/12/28 06:12:13;;;;;;;1.45;0.50;;;3.00;99.90;;;;;;5015217;28;20113;-82
2020/12/28 06:14:40;;;;;;;4.30;0.60;;;2.90;99.90;;;;;;5015752;28;20044;-81
2020/12/28 06:17:17;;;;;;;3.10;0.60;;;2.80;99.90;;;;;;5013659;28;20497;-81
2020/12/28 06:19:43;;;;;;;2.50;0.70;;;2.70;99.90;;;;;;5010533;28;20026;-82
2020/12/28 06:22:23;;;;;;;1.98;0.60;;;2.60;99.90;;;;;;5006988;28;20461;-82
2020/12/28 06:25:17;;;;;;;3.45;0.63;;;2.50;99.90;;;;;;5012993;28;20017;-81
2020/12/28 06:27:53;;;;;;;1.25;0.57;;;2.50;99.90;;;;;;5014933;28;20026;-81
2020/12/28 06:30:21;;;;;;;1.88;0.47;;;2.40;99.90;;;;;;5012126;28;20067;-81
2020/12/28 06:33:05;;;;;;;2.78;0.60;;;2.40;99.90;;;;;;5009248;28;20057;-83
2020/12/28 06:35:32;;;;;;;1.25;0.40;;;2.30;99.90;;;;;;5004115;28;20083;-83
2020/12/28 06:38:02;;;;;;;2.63;0.40;;;2.30;99.90;;;;;;5004118;28;20059;-83
2020/12/28 06:40:44;;;;;;;4.05;0.60;;;2.30;99.90;;;;;;5004169;28;20067;-82
2020/12/28 06:43:13;;;;;;;3.92;1.30;;;2.40;99.90;;;;;;5008493;28;20026;-83
2020/12/28 06:46:10;;;;;;;5.82;1.25;;;2.60;99.90;;;;;;5018946;28;20121;-82
2020/12/28 06:52:17;;;;;;;3.38;0.90;;;2.60;99.90;;;;;;5003743;23;20049;-80
2020/12/28 07:33:24;;;;;;;;;;;;;;;;;;;;;
2020/12/28 07:47:16;;;;;;;0.63;0.30;;;2.20;99.90;;;;;;5368185;23;20074;-80
2020/12/28 07:53:20;;;;;;;5.05;2.13;;;2.50;99.90;;;;;;5015987;23;20691;-79
2020/12/28 08:14:11;;;;;;;12.05;2.95;;;2.80;99.90;;;;;;4984870;28;20493;-80
2020/12/28 08:17:22;;;;;;;;;;;2.80;99.90;;;;;;4941649;23;20058;-80
2020/12/28 08:57:41;;;;;;;6.15;2.63;;;2.90;99.90;;;;;;5006402;23;20086;-80
2020/12/28 09:00:07;;;;;;;7.05;1.63;;;2.80;99.90;;;;;;4905604;29;20454;-80
2020/12/28 09:12:16;;;;;;;9.27;4.68;;;3.00;99.90;;;;;;4981910;23;20102;-81
2020/12/28 09:29:20;;;;;;;9.95;4.97;;;3.10;99.90;;;;;;5162188;23;20114;-78
2020/12/28 09:32:06;;;;;;;11.33;3.13;;;3.10;99.90;;;;;;5147845;23;20053;-81
2020/12/28 09:45:41;;;;;;;9.60;1.98;;;3.10;99.90;;;;;;4907656;29;20044;-80
2020/12/28 09:48:17;;;;;;;;;;;;;;;;;;;;;
2020/12/28 09:50:53;;;;;;;3.58;1.00;;;3.20;99.90;;;;;;4918791;29;20024;-81
2020/12/28 09:53:34;;;;;;;2.28;0.70;;;3.20;99.90;;;;;;4925942;29;20351;-81
2020/12/28 09:56:06;;;;;;;6.40;2.78;;;3.30;99.90;;;;;;4918792;29;20387;-79
2020/12/28 09:58:35;;;;;;;;;;;3.30;99.90;;;;;;4905777;29;20032;-80
2020/12/28 10:03:52;;;;;;;1.85;0.50;;;3.50;99.90;;;;;;4925040;29;20105;-80
2020/12/28 10:06:35;;;;;;;2.35;0.50;;;3.40;99.90;;;;;;4936278;29;20024;-80
2020/12/28 10:09:06;;;;;;;1.67;0.70;;;3.40;99.90;;;;;;4906721;29;20124;-80
2020/12/28 10:11:35;;;;;;;3.35;1.00;;;3.50;99.90;;;;;;4924829;29;20038;-81
2020/12/28 10:14:38;;;;;;;2.00;0.75;;;3.40;99.90;;;;;;4919472;29;20043;-80
2020/12/28 10:20:07;;;;;;;9.35;1.33;;;3.20;99.90;;;;;;4908960;29;20086;-81
2020/12/28 10:22:40;;;;;;;4.65;1.92;;;3.20;99.90;;;;;;4912518;29;20045;-81
2020/12/28 10:25:33;;;;;;;10.25;4.68;;;3.20;99.90;;;;;;4910862;29;20035;-81
2020/12/28 10:28:07;;;;;;;11.27;6.10;;;3.30;99.90;;;;;;4898905;29;20038;-81
2020/12/28 10:30:33;;;;;;;6.07;3.53;;;3.40;99.90;;;;;;4922074;29;20447;-80
2020/12/28 10:33:36;;;;;;;8.02;3.25;;;3.50;99.90;;;;;;4925010;29;20115;-81
2020/12/28 10:36:02;;;;;;;7.65;4.10;;;3.70;99.90;;;;;;4924759;29;20122;-81
2020/12/28 10:41:34;;;;;;;4.25;1.50;;;3.80;99.90;;;;;;5083676;23;20486;-80
2020/12/28 10:44:06;;;;;;;9.50;4.60;;;3.80;99.90;;;;;;4931408;28;20034;-80
2020/12/28 10:46:41;;;;;;;4.13;2.10;;;3.90;99.90;;;;;;4930394;28;20402;-81
2020/12/28 10:49:37;;;;;;;5.93;2.38;;;4.00;99.90;;;;;;4938762;28;20268;-80
2020/12/28 10:52:03;;;;;;;9.25;2.42;;;4.10;99.90;;;;;;4929428;28;20932;-80
2020/12/28 10:54:34;;;;;;;15.05;5.38;;;4.10;99.90;;;;;;4932340;28;20122;-81
2020/12/28 10:57:03;;;;;;;23.27;6.20;;;4.10;99.90;;;;;;4925882;28;20050;-81
2020/12/28 10:59:37;;;;;;;6.65;2.75;;;4.30;99.90;;;;;;4928221;28;20042;-81
2020/12/28 11:02:06;;;;;;;7.40;2.40;;;4.40;99.90;;;;;;4937940;28;20114;-80
2020/12/28 11:04:43;;;;;;;19.85;7.63;;;4.40;99.90;;;;;;4925990;29;20145;-81
2020/12/28 11:07:32;;;;;;;20.88;8.25;;;4.50;99.90;;;;;;4936317;28;20526;-80
2020/12/28 11:10:01;;;;;;;49.40;27.63;;;4.50;99.90;;;;;;4992631;23;20061;-81
2020/12/28 11:12:33;;;;;;;8.05;4.18;;;4.40;99.90;;;;;;5055231;23;20093;-81
2020/12/28 11:15:01;;;;;;;8.25;4.22;;;4.40;99.90;;;;;;5054787;23;20050;-80
2020/12/28 11:17:26;;;;;;;7.38;3.72;;;4.50;99.90;;;;;;4982135;23;20398;-81
2020/12/28 11:20:02;;;;;;;12.35;4.97;;;4.60;99.90;;;;;;4975055;23;20057;-79
2020/12/28 11:22:30;;;;;;;4.22;1.25;;;4.50;99.90;;;;;;4958224;28;20030;-80
2020/12/28 11:27:30;;;;;;;4.70;1.63;;;4.40;99.90;;;;;;5002833;23;20066;-81
2020/12/28 11:29:57;;;;;;;4.30;1.48;;;4.30;99.90;;;;;;4946138;23;20135;-82
2020/12/28 11:32:45;;;;;;;;;;;;;;;;;;;;;
2020/12/28 11:36:06;;;;;;;4.10;1.63;;;4.40;99.90;;;;;;4970866;23;20073;-81
2020/12/28 11:38:52;;;;;;;6.60;1.80;;;4.40;99.90;;;;;;4958449;23;20765;-81
2020/12/28 11:42:02;;;;;;;4.18;1.40;;;4.50;99.90;;;;;;5021717;23;20838;-79
2020/12/28 11:45:07;;;;;;;6.45;2.38;;;4.60;99.90;;;;;;4938999;29;20039;-79
2020/12/28 11:51:00;;;;;;;5.10;1.90;;;4.70;99.90;;;;;;4966495;23;20063;-79
2020/12/28 11:54:04;;;;;;;2.80;0.80;;;4.60;99.90;;;;;;4941166;28;20488;-77
2020/12/28 11:56:36;;;;;;;4.28;1.30;;;4.50;99.90;;;;;;4957568;28;20045;-78
2020/12/28 11:59:05;;;;;;;3.47;1.00;;;4.50;99.90;;;;;;4959622;28;20031;-78
2020/12/28 12:04:58;;;;;;;4.05;0.70;;;4.60;99.90;;;;;;4942225;23;20093;-79
2020/12/28 12:21:07;;;;;;;1.20;0.30;;;3.90;99.90;;;;;;4999381;23;20379;-78
2020/12/28 12:50:35;;;;;;;2.22;0.70;;;3.60;99.90;;;;;;5020724;23;20063;-80
2020/12/28 12:53:01;;;;;;;3.28;0.80;;;3.70;99.90;;;;;;4953511;28;20067;-80
2020/12/28 13:11:33;;;;;;;15.13;3.15;;;3.60;99.90;;;;;;4892403;26;20047;-80
2020/12/28 13:14:13;;;;;;;13.07;3.53;;;3.50;99.90;;;;;;4955903;23;20047;-80
2020/12/28 13:22:36;;;;;;;6.15;1.40;;;3.60;99.90;;;;;;4821820;23;20054;-80
2020/12/28 13:55:27;;;;;;;1.73;0.40;;;3.70;99.90;;;;;;4975913;23;20179;-79
2020/12/28 13:58:14;;;;;;;3.28;0.50;;;3.70;99.90;;;;;;4961142;28;20161;-80
2020/12/28 14:01:29;;;;;;;1.65;0.40;;;3.70;99.90;;;;;;4949373;28;20076;-80
2020/12/28 14:06:53;;;;;;;4.70;1.58;;;3.60;99.90;;;;;;4984648;23;20055;-79
2020/12/28 14:09:26;;;;;;;2.33;0.70;;;3.60;99.90;;;;;;5012798;23;20039;-78
2020/12/28 14:11:51;;;;;;;7.25;2.38;;;3.70;99.90;;;;;;4946921;23;20118;-78
2020/12/28 14:14:17;;;;;;;8.50;2.45;;;3.70;99.90;;;;;;4948025;28;20121;-78
2020/12/28 14:16:43;;;;;;;6.05;2.05;;;3.90;99.90;;;;;;4949980;28;20574;-78
2020/12/28 14:19:09;;;;;;;5.70;1.50;;;3.90;99.90;;;;;;4963129;28;20034;-78
2020/12/28 14:21:35;;;;;;;8.20;1.88;;;4.00;99.90;;;;;;4945614;28;20482;-78
2020/12/28 14:24:00;;;;;;;5.38;1.83;;;4.00;99.90;;;;;;4963696;28;20568;-78
2020/12/28 14:26:29;;;;;;;7.78;2.30;;;4.00;99.90;;;;;;5074433;23;20098;-78
2020/12/28 14:28:54;;;;;;;6.18;1.65;;;4.10;99.90;;;;;;4948698;28;20110;-78
2020/12/28 14:31:20;;;;;;;5.47;1.92;;;4.00;99.90;;;;;;4955871;28;20039;-78
2020/12/28 14:33:46;;;;;;;5.15;2.03;;;4.10;99.90;;;;;;4955741;28;20050;-78
2020/12/28 14:36:24;;;;;;;3.67;1.60;;;4.20;99.90;;;;;;4967742;23;20087;-78
2020/12/28 14:39:25;;;;;;;4.07;1.67;;;4.10;99.90;;;;;;4964851;28;20121;-78
2020/12/28 14:41:51;;;;;;;5.35;1.67;;;4.20;99.90;;;;;;4971285;23;21252;-78
2020/12/28 14:44:17;;;;;;;5.15;1.70;;;4.20;99.90;;;;;;4983808;28;20084;-78
2020/12/28 14:46:43;;;;;;;10.10;4.43;;;4.20;99.90;;;;;;4992099;23;20046;-78
2020/12/28 14:51:45;;;;;;;8.98;2.95;;;4.20;99.90;;;;;;5009140;23;20082;-78
2020/12/28 14:54:11;;;;;;;8.55;2.85;;;4.20;99.90;;;;;;4962953;23;20059;-78
2020/12/28 14:56:37;;;;;;;6.72;3.28;;;4.30;99.90;;;;;;4995503;23;20098;-78
2020/12/28 14:59:03;;;;;;;5.60;2.80;;;4.30;99.90;;;;;;4939770;29;20043;-77
2020/12/28 15:01:29;;;;;;;6.20;3.15;;;4.20;99.90;;;;;;5064730;23;20449;-78
2020/12/28 15:03:55;;;;;;;5.80;2.63;;;4.30;99.90;;;;;;4962862;28;20478;-78
2020/12/28 15:08:49;;;;;;;7.50;2.53;;;4.20;99.90;;;;;;4950782;28;20054;-78
2020/12/28 15:13:49;;;;;;;6.38;1.98;;;4.10;99.90;;;;;;4948273;28;20066;-78
2020/12/28 15:16:15;;;;;;;2.63;0.68;;;4.00;99.90;;;;;;4958469;23;20037;-78
2020/12/28 15:18:41;;;;;;;2.15;0.40;;;4.00;99.90;;;;;;5026078;23;20117;-78
2020/12/28 15:21:07;;;;;;;1.45;0.45;;;4.10;99.90;;;;;;4950946;28;20075;-78
2020/12/28 15:23:33;;;;;;;4.43;1.00;;;4.10;99.90;;;;;;5039839;23;20424;-78
2020/12/28 15:25:58;;;;;;;3.45;1.00;;;4.30;99.90;;;;;;4985930;28;20037;-78
2020/12/28 15:28:24;;;;;;;1.27;0.30;;;4.20;99.90;;;;;;4984225;28;20061;-78
2020/12/28 15:30:50;;;;;;;5.50;1.60;;;4.30;99.90;;;;;;4978973;28;20065;-78
2020/12/28 15:33:16;;;;;;;3.20;1.15;;;4.20;99.90;;;;;;4971002;23;20090;-78
2020/12/28 15:35:43;;;;;;;7.55;3.50;;;4.10;99.90;;;;;;4994326;23;20046;-78
2020/12/28 15:38:09;;;;;;;6.03;1.20;;;4.10;99.90;;;;;;4998057;23;20054;-78
2020/12/28 15:40:34;;;;;;;5.55;1.40;;;3.90;99.90;;;;;;5102624;23;20435;-78
2020/12/28 15:43:00;;;;;;;6.53;2.38;;;4.00;99.90;;;;;;4947467;28;20058;-78
2020/12/28 15:45:26;;;;;;;4.47;1.13;;;4.10;99.90;;;;;;5060815;23;20629;-78
2020/12/28 15:47:52;;;;;;;3.28;0.43;;;3.90;99.90;;;;;;4924430;29;20436;-78
2020/12/28 15:52:47;;;;;;;2.83;0.50;;;3.90;99.90;;;;;;4944441;29;20051;-78
2020/12/28 15:55:12;;;;;;;3.35;0.77;;;3.90;99.90;;;;;;4929639;23;20060;-78
2020/12/28 15:57:38;;;;;;;2.40;0.52;;;4.00;99.90;;;;;;4956485;23;20106;-78
2020/12/28 16:00:04;;;;;;;2.92;0.47;;;4.00;99.90;;;;;;4965911;28;20039;-78
2020/12/28 16:02:30;;;;;;;2.05;0.60;;;4.00;99.90;;;;;;4939469;28;20036;-78
2020/12/28 16:04:56;;;;;;;2.70;0.57;;;4.00;99.90;;;;;;4964285;28;20035;-78
2020/12/28 16:07:21;;;;;;;3.13;0.70;;;3.90;99.90;;;;;;4949112;28;20031;-78
2020/12/28 16:09:53;;;;;;;2.47;0.50;;;3.90;99.90;;;;;;4958427;23;20450;-78
2020/12/28 16:12:19;;;;;;;7.43;2.00;;;4.00;99.90;;;;;;4950376;23;20134;-78
2020/12/28 16:17:16;;;;;;;11.43;3.60;;;3.90;99.90;;;;;;4941931;28;20444;-78
2020/12/28 16:19:42;;;;;;;7.75;3.75;;;3.80;99.90;;;;;;5163410;23;20062;-78
2020/12/28 16:22:08;;;;;;;9.00;4.63;;;3.70;99.90;;;;;;4945204;23;20052;-78
2020/12/28 16:24:34;;;;;;;7.63;3.28;;;3.60;99.90;;;;;;5196185;23;20153;-78
2020/12/28 16:27:00;;;;;;;6.28;2.85;;;3.70;99.90;;;;;;5085100;23;20422;-78
2020/12/28 16:29:26;;;;;;;5.18;1.92;;;3.60;99.90;;;;;;4965197;28;20121;-78
2020/12/28 16:31:57;;;;;;;5.13;1.33;;;3.60;99.90;;;;;;5080858;23;20099;-78
2020/12/28 16:34:23;;;;;;;3.90;1.20;;;3.60;99.90;;;;;;4908214;29;20047;-78
2020/12/28 16:36:56;;;;;;;10.85;4.30;;;3.50;99.90;;;;;;4909521;29;20036;-78
2020/12/28 16:39:22;;;;;;;6.63;2.72;;;3.40;99.90;;;;;;4920197;29;20039;-78
2020/12/28 16:41:49;;;;;;;7.75;2.95;;;3.20;99.90;;;;;;4896372;29;20028;-78
2020/12/28 16:47:07;;;;;;;6.47;2.30;;;3.20;99.90;;;;;;4964344;28;20066;-78
2020/12/28 16:49:52;;;;;;;6.88;2.42;;;3.30;99.90;;;;;;5287657;23;20085;-78
2020/12/28 16:55:49;;;;;;;3.20;1.10;;;3.20;99.90;;;;;;4922175;28;20053;-78
2020/12/28 17:00:50;;;;;;;12.30;7.88;;;3.20;99.90;;;;;;4946811;28;20042;-78
2020/12/28 17:03:15;;;;;;;15.18;7.35;;;3.20;99.90;;;;;;4962276;23;20057;-78
2020/12/28 17:08:16;;;;;;;3.47;1.00;;;3.20;99.90;;;;;;4980790;28;20078;-78
2020/12/28 17:10:45;;;;;;;4.90;1.30;;;3.20;99.90;;;;;;4966573;28;20147;-78
2020/12/28 17:13:10;;;;;;;8.68;2.38;;;3.30;99.90;;;;;;4979024;23;20426;-78
2020/12/28 17:15:48;;;;;;;2.10;0.70;;;3.30;99.90;;;;;;5028470;23;20047;-77
2020/12/28 17:18:20;;;;;;;2.58;0.85;;;3.40;99.90;;;;;;4977344;28;20062;-78
2020/12/28 17:20:51;;;;;;;4.85;1.45;;;3.50;99.90;;;;;;4976734;28;20379;-78
2020/12/28 17:23:17;;;;;;;3.38;1.00;;;3.50;99.90;;;;;;4983805;23;20082;-78
2020/12/28 17:25:49;;;;;;;4.40;1.20;;;3.50;99.90;;;;;;4969281;23;20054;-78
2020/12/28 17:28:15;;;;;;;4.30;0.90;;;3.60;99.90;;;;;;4973299;23;20054;-78
2020/12/28 17:30:40;;;;;;;3.33;1.00;;;3.60;99.90;;;;;;4968404;28;20387;-78
2020/12/28 17:33:06;;;;;;;6.57;1.70;;;3.70;99.90;;;;;;4963931;23;20068;-78
2020/12/28 17:35:32;;;;;;;4.90;1.13;;;3.70;99.90;;;;;;4927850;29;20039;-78
2020/12/28 17:37:58;;;;;;;4.43;1.58;;;3.70;99.90;;;;;;4925242;29;20050;-78
2020/12/28 17:40:24;;;;;;;3.03;0.68;;;3.70;99.90;;;;;;4923657;29;20035;-76
2020/12/28 17:42:49;;;;;;;2.85;0.90;;;3.70;99.90;;;;;;4923075;29;20034;-77
2020/12/28 17:45:15;;;;;;;3.03;1.02;;;3.80;99.90;;;;;;4921018;29;20462;-77
2020/12/28 17:47:40;;;;;;;1.30;0.50;;;3.80;99.90;;;;;;4921733;29;20770;-77
2020/12/28 17:50:06;;;;;;;1.38;0.38;;;3.80;99.90;;;;;;4926151;29;20067;-77
2020/12/28 17:52:32;;;;;;;1.80;0.30;;;3.70;99.90;;;;;;4919288;29;20067;-77
2020/12/28 17:54:58;;;;;;;1.30;0.25;;;3.70;99.90;;;;;;4924217;29;20078;-76
2020/12/28 17:57:24;;;;;;;1.95;0.40;;;3.70;99.90;;;;;;4923935;29;20773;-77
2020/12/28 17:59:50;;;;;;;1.30;0.30;;;3.70;99.90;;;;;;4926363;29;20452;-76
2020/12/28 18:02:15;;;;;;;0.75;0.30;;;3.60;99.90;;;;;;4924019;28;20051;-76